Hobart Mills, California
Current Conditions -  °F | °C
As of 1:35 AM on Friday 28 Nov 2014 (Local Time) from KTRK Reporting Station
Clear Clear  
Wind Chill: 43°   Ceiling: Unl
Heat Index: 48°   Visibility: 10mi
Dew Point:   Wind: 13mph
Humidity: 13%   Direction: 150°SSE
Pressure: 30.13"   Gusts: 18mph
Location:  39.3569°N, 120.175°W
Report Text: KTRK 280935Z AUTO 15011G16KT 10SM CLR 09/M18 A3013 RMK AO2
Loading
Personal Weather Stations






























Interactive Weather Map New forecast layout! Learn more

10-Day Weather Forecast

Advertisements
Track Severe Weather on mobile